• Join FlightAware (Why Join?)
  • Login
  • US Flag 
Trick or treat! (Boo!!) 
09:20PM EDT


 

Airport Tracker/Info


-or-


 

Live Flight TrackerFlight Track Log ✈ GJS6221 ✈ 27-Jun-2013 ✈ CYUL - KLGA

Flight Track Log - Related Links

Times and Time Zones

All times are in EDT time to prevent confusion due to time zone crossing. See the GJS6221 flight status page for this flight to view local times or setup timezone preferences in your user account.

Time Position Orientation Groundspeed Altitude Reporting Facility
EDT Latitude Longitude Course Direction KTS MPH feet Rate Location/Type
07:18AM 45.4453 -73.7564 199° South 443 510 1,700  Level Boston Center
07:19AM 45.4053 -73.8117 224° Southwest 312 359 3,800 2,640 Climbing Boston Center
07:20AM 45.3503 -73.8753 219° Southwest 288 331 7,000 3,180 Climbing Boston Center
07:21AM 45.2850 -73.9267 209° Southwest 275 316 10,200 2,880 Climbing Boston Center
07:22AM 45.1997 -73.9275 180° South 275 316 12,800 2,400 Climbing Boston Center
07:23AM 44.9213 -74.0143 199° South  Level FlightAware Approximate
07:23AM 45.1058 -73.9253 179° South 304 350 15,000  Level Boston Center
07:24AM 45.0081 -73.9197 178° South 331 381 17,700 2,400 Climbing Boston Center
07:25AM 44.9103 -73.9083 175° South 352 405 19,800 1,860 Climbing Boston Center
07:26AM 44.8108 -73.8619 162° South 369 425 21,500 1,800 Climbing Boston Center
07:27AM 44.6969 -73.8067 161° South 389 448 23,400 1,500 Climbing Boston Center
07:28AM 44.5997 -73.7608 161° South 403 464 24,500 1,080 Climbing Boston Center
07:29AM 44.4856 -73.7086 162° South 413 475 25,600 1,080 Climbing Boston Center
07:30AM 44.3564 -73.7061 179° South 426 490 26,700 1,020 Climbing Boston Center
07:31AM 44.2356 -73.7150 183° South 437 503 27,700 960 Climbing Boston Center
07:32AM 44.1103 -73.7239 183° South 449 517 28,700 900 Climbing Boston Center
07:33AM 43.9831 -73.7328 183° South 454 522 29,600 600 Climbing Boston Center
07:34AM 43.8581 -73.7386 182° South 459 528 30,000 180 Climbing Boston Center
07:35AM 43.7350 -73.7417 181° South 459 528 30,000  Level Boston Center
07:36AM 43.6017 -73.7533 184° South 454 522 30,000 -360 Level Boston Center
07:37AM 43.4786 -73.7619 183° South 449 517 29,300 -960 Descending Boston Center
07:38AM 43.3431 -73.7706 183° South 449 517 28,100 -1,140 Descending Boston Center
07:39AM 43.2200 -73.7792 183° South 444 511 27,100 -1,020 Descending Boston Center
07:40AM 43.1031 -73.7822 181° South 444 511 26,100 -900 Descending Boston Center
07:41AM 43.0050 -73.7914 184° South 426 490 25,300 -900 Descending Boston Center
07:42AM 42.8967 -73.7975 182° South 410 472 24,300 -1,020 Descending Boston Center
07:43AM 42.7881 -73.8067 184° South 404 465 23,300 -960 Descending Boston Center
07:44AM 42.6819 -73.7931 175° South 392 451 22,300 -1,020 Descending Boston Center
07:45AM 42.5572 -73.7706 172° South 385 443 21,100 -1,140 Descending Boston Center
07:46AM 42.4492 -73.7483 171° South 385 443 20,100 -1,020 Descending Boston Center
07:47AM 42.3431 -73.7239 170° South 385 443 19,100 -600 Descending Boston Center
07:48AM 42.2411 -73.7019 171° South 391 450 19,000 -60 Descending Boston Center
07:49AM 42.1394 -73.6806 171° South 386 444 19,000  Level Boston Center
07:50AM 42.0308 -73.6867 182° South 369 425 19,000  Level Boston Center
07:51AM 41.9392 -73.7017 187° South 369 425 19,000 -480 Level Boston Center
07:52AM 41.8306 -73.7189 187° South 369 425 18,100 -1,320 Descending Boston Center
07:53AM 41.7492 -73.7311 186° South 343 395 16,400 -1,860 Descending Boston Center
07:54AM 41.6572 -73.7489 188° South 319 367 14,400 -1,920 Descending Boston Center
07:55AM 41.5833 -73.7500 181° South 295 339 12,900 -1,980 Descending New York TRACON
07:56AM 41.5167 -73.7667 191° South 284 327 11,000 -2,100 Descending New York TRACON
07:57AM 41.4500 -73.7833 191° South 276 318 9,200 -1,620 Descending New York TRACON
07:58AM 41.3667 -73.8000 189° South 271 312 8,000 -600 Descending New York TRACON
07:59AM 41.3000 -73.7667 159° South 281 323 8,000  Level New York TRACON
08:00AM 41.2500 -73.7167 143° Southeast 279 321 8,000 -600 Level New York TRACON
08:01AM 41.1833 -73.6500 143° Southeast 278 320 6,900 -1,500 Descending New York TRACON
08:02AM 41.1167 -73.6000 151° Southeast 273 314 5,100 -1,560 Descending New York TRACON
08:03AM 41.0500 -73.6500 209° Southwest 266 306 4,000 -600 Descending New York TRACON
08:04AM 41.0000 -73.7000 217° Southwest 261 300 4,000 -120 Level New York TRACON
08:05AM 40.9500 -73.7333 207° Southwest 213 245 3,800 -780 Descending New York TRACON
08:06AM 40.9000 -73.7833 217° Southwest 209 241 2,500 -1,200 Descending New York TRACON
08:07AM 40.8500 -73.8167 207° Southwest 182 209 1,600 -900 Descending New York TRACON
08:08AM 40.8167 -73.8500 217° Southwest 141 162 900 -720 Descending New York TRACON
08:10AM 40.7772 -73.8726 180° South  Level Estimated
08:17AM 40.7772 -73.8726 180° South  Level Estimated
08:18AM 40.7772 -73.8726 180° South  Level Estimated